Buffalo Creek, Colorado
Current Conditions -  °F | °C
As of 5:53 PM on Thursday 27 Nov 2014 (Local Time) from KAPA Reporting Station
Broken Clouds Broken Clouds  
Wind Chill: 54°   Ceiling: 20000
Heat Index: 54°   Visibility: 10mi
Dew Point: 17°   Wind: 5mph
Humidity: 23%   Direction: 330°NNW
Pressure: 30.15"   Gusts: NA
Location:  39.39°N, 105.27°W
Report Text: KAPA 280053Z 33004KT 10SM SCT150 BKN200 12/M08 A3015 RMK AO2 SLP184 T01221083
Loading
Personal Weather Stations






























Interactive Weather Map New forecast layout! Learn more

10-Day Weather Forecast

Advertisements
Track Severe Weather on mobile